sensor_id;sensor_type;location;lat;lon;timestamp;P1;durP1;ratioP1;P2;durP2;ratioP2
76380;SDS011;65202;52.520;10.528;2023-09-18T00:01:20;9.45;;;7.47;;
76380;SDS011;65202;52.520;10.528;2023-09-18T00:03:47;11.93;;;7.93;;
76380;SDS011;65202;52.520;10.528;2023-09-18T00:06:15;8.63;;;7.15;;
76380;SDS011;65202;52.520;10.528;2023-09-18T00:08:42;8.23;;;7.10;;
76380;SDS011;65202;52.520;10.528;2023-09-18T00:11:09;10.88;;;7.57;;
76380;SDS011;65202;52.520;10.528;2023-09-18T00:13:38;9.00;;;7.60;;
76380;SDS011;65202;52.520;10.528;2023-09-18T00:16:05;10.63;;;7.50;;
76380;SDS011;65202;52.520;10.528;2023-09-18T00:18:33;11.30;;;7.70;;
76380;SDS011;65202;52.520;10.528;2023-09-18T00:21:00;8.55;;;7.72;;
76380;SDS011;65202;52.520;10.528;2023-09-18T00:23:28;9.13;;;7.47;;
76380;SDS011;65202;52.520;10.528;2023-09-18T00:25:55;9.60;;;7.85;;
76380;SDS011;65202;52.520;10.528;2023-09-18T00:28:22;11.60;;;8.23;;
76380;SDS011;65202;52.520;10.528;2023-09-18T00:30:49;11.50;;;7.38;;
76380;SDS011;65202;52.520;10.528;2023-09-18T00:33:17;12.38;;;8.38;;
76380;SDS011;65202;52.520;10.528;2023-09-18T00:35:50;11.50;;;7.68;;
76380;SDS011;65202;52.520;10.528;2023-09-18T00:38:18;11.67;;;8.20;;
76380;SDS011;65202;52.520;10.528;2023-09-18T00:40:46;8.15;;;7.35;;
76380;SDS011;65202;52.520;10.528;2023-09-18T00:43:14;12.82;;;7.95;;
76380;SDS011;65202;52.520;10.528;2023-09-18T00:45:42;12.43;;;8.00;;
76380;SDS011;65202;52.520;10.528;2023-09-18T00:48:12;10.75;;;7.80;;
76380;SDS011;65202;52.520;10.528;2023-09-18T00:50:43;9.20;;;8.07;;
76380;SDS011;65202;52.520;10.528;2023-09-18T00:53:13;10.80;;;7.90;;
76380;SDS011;65202;52.520;10.528;2023-09-18T00:55:45;11.77;;;7.93;;
76380;SDS011;65202;52.520;10.528;2023-09-18T00:58:13;9.32;;;8.25;;
76380;SDS011;65202;52.520;10.528;2023-09-18T01:00:40;11.35;;;7.78;;
76380;SDS011;65202;52.520;10.528;2023-09-18T01:03:08;8.65;;;7.65;;
76380;SDS011;65202;52.520;10.528;2023-09-18T01:05:36;12.18;;;8.40;;
76380;SDS011;65202;52.520;10.528;2023-09-18T01:08:04;9.27;;;8.30;;
76380;SDS011;65202;52.520;10.528;2023-09-18T01:10:34;11.68;;;8.25;;
76380;SDS011;65202;52.520;10.528;2023-09-18T01:13:27;11.53;;;8.00;;
76380;SDS011;65202;52.520;10.528;2023-09-18T01:16:17;9.90;;;8.20;;
76380;SDS011;65202;52.520;10.528;2023-09-18T01:18:54;10.25;;;7.85;;
76380;SDS011;65202;52.520;10.528;2023-09-18T01:21:21;12.00;;;8.18;;
76380;SDS011;65202;52.520;10.528;2023-09-18T01:23:49;10.00;;;7.85;;
76380;SDS011;65202;52.520;10.528;2023-09-18T01:26:16;13.35;;;8.65;;
76380;SDS011;65202;52.520;10.528;2023-09-18T01:28:44;10.13;;;8.40;;
76380;SDS011;65202;52.520;10.528;2023-09-18T01:31:11;9.20;;;8.20;;
76380;SDS011;65202;52.520;10.528;2023-09-18T01:33:38;15.55;;;8.02;;
76380;SDS011;65202;52.520;10.528;2023-09-18T01:36:07;13.65;;;8.30;;
76380;SDS011;65202;52.520;10.528;2023-09-18T01:38:35;9.07;;;8.02;;
76380;SDS011;65202;52.520;10.528;2023-09-18T01:41:04;9.80;;;8.70;;
76380;SDS011;65202;52.520;10.528;2023-09-18T01:43:31;11.48;;;8.25;;
76380;SDS011;65202;52.520;10.528;2023-09-18T01:45:59;11.52;;;8.20;;
76380;SDS011;65202;52.520;10.528;2023-09-18T01:48:26;10.30;;;7.90;;
76380;SDS011;65202;52.520;10.528;2023-09-18T01:50:53;10.15;;;7.72;;
76380;SDS011;65202;52.520;10.528;2023-09-18T01:53:20;12.60;;;8.32;;
76380;SDS011;65202;52.520;10.528;2023-09-18T01:55:48;10.05;;;7.70;;
76380;SDS011;65202;52.520;10.528;2023-09-18T01:58:15;11.13;;;8.65;;
76380;SDS011;65202;52.520;10.528;2023-09-18T02:00:43;11.27;;;8.60;;
76380;SDS011;65202;52.520;10.528;2023-09-18T02:03:11;9.00;;;8.10;;
76380;SDS011;65202;52.520;10.528;2023-09-18T02:05:58;16.75;;;8.30;;
76380;SDS011;65202;52.520;10.528;2023-09-18T02:08:26;9.52;;;8.25;;
76380;SDS011;65202;52.520;10.528;2023-09-18T02:10:53;10.32;;;8.10;;
76380;SDS011;65202;52.520;10.528;2023-09-18T02:13:20;8.80;;;7.47;;
76380;SDS011;65202;52.520;10.528;2023-09-18T02:15:47;11.85;;;8.38;;
76380;SDS011;65202;52.520;10.528;2023-09-18T02:18:15;9.13;;;8.18;;
76380;SDS011;65202;52.520;10.528;2023-09-18T02:20:42;11.02;;;8.32;;
76380;SDS011;65202;52.520;10.528;2023-09-18T02:23:14;10.18;;;8.23;;
76380;SDS011;65202;52.520;10.528;2023-09-18T02:25:43;9.13;;;8.18;;
76380;SDS011;65202;52.520;10.528;2023-09-18T02:28:10;13.48;;;8.77;;
76380;SDS011;65202;52.520;10.528;2023-09-18T02:30:37;12.15;;;8.68;;
76380;SDS011;65202;52.520;10.528;2023-09-18T02:33:04;13.15;;;8.73;;
76380;SDS011;65202;52.520;10.528;2023-09-18T02:35:32;14.02;;;8.68;;
76380;SDS011;65202;52.520;10.528;2023-09-18T02:37:59;10.52;;;8.35;;
76380;SDS011;65202;52.520;10.528;2023-09-18T02:40:29;10.30;;;8.57;;
76380;SDS011;65202;52.520;10.528;2023-09-18T02:42:56;11.75;;;8.52;;
76380;SDS011;65202;52.520;10.528;2023-09-18T02:45:23;9.40;;;8.40;;
76380;SDS011;65202;52.520;10.528;2023-09-18T02:47:50;10.85;;;8.95;;
76380;SDS011;65202;52.520;10.528;2023-09-18T02:50:18;9.90;;;8.90;;
76380;SDS011;65202;52.520;10.528;2023-09-18T02:52:45;10.77;;;8.45;;
76380;SDS011;65202;52.520;10.528;2023-09-18T02:55:12;10.38;;;8.95;;
76380;SDS011;65202;52.520;10.528;2023-09-18T02:57:40;10.25;;;8.65;;
76380;SDS011;65202;52.520;10.528;2023-09-18T03:00:07;10.55;;;8.82;;
76380;SDS011;65202;52.520;10.528;2023-09-18T03:02:36;12.20;;;8.60;;
76380;SDS011;65202;52.520;10.528;2023-09-18T03:05:03;10.38;;;9.00;;
76380;SDS011;65202;52.520;10.528;2023-09-18T03:07:31;14.77;;;9.18;;
76380;SDS011;65202;52.520;10.528;2023-09-18T03:09:58;13.70;;;8.20;;
76380;SDS011;65202;52.520;10.528;2023-09-18T03:12:26;12.40;;;8.50;;
76380;SDS011;65202;52.520;10.528;2023-09-18T03:14:53;13.90;;;8.65;;
76380;SDS011;65202;52.520;10.528;2023-09-18T03:17:20;12.95;;;9.48;;
76380;SDS011;65202;52.520;10.528;2023-09-18T03:19:48;11.98;;;8.85;;
76380;SDS011;65202;52.520;10.528;2023-09-18T03:22:16;9.35;;;8.23;;
76380;SDS011;65202;52.520;10.528;2023-09-18T03:24:43;11.65;;;9.00;;
76380;SDS011;65202;52.520;10.528;2023-09-18T03:27:10;10.70;;;8.70;;
76380;SDS011;65202;52.520;10.528;2023-09-18T03:29:37;13.38;;;9.10;;
76380;SDS011;65202;52.520;10.528;2023-09-18T03:32:05;14.60;;;8.63;;
76380;SDS011;65202;52.520;10.528;2023-09-18T03:34:32;13.80;;;9.43;;
76380;SDS011;65202;52.520;10.528;2023-09-18T03:37:00;14.88;;;8.50;;
76380;SDS011;65202;52.520;10.528;2023-09-18T03:39:27;11.20;;;9.25;;
76380;SDS011;65202;52.520;10.528;2023-09-18T03:41:54;12.98;;;9.40;;
76380;SDS011;65202;52.520;10.528;2023-09-18T03:44:22;10.48;;;8.73;;
76380;SDS011;65202;52.520;10.528;2023-09-18T03:46:49;12.40;;;9.23;;
76380;SDS011;65202;52.520;10.528;2023-09-18T03:49:17;14.82;;;8.98;;
76380;SDS011;65202;52.520;10.528;2023-09-18T03:51:44;12.65;;;8.75;;
76380;SDS011;65202;52.520;10.528;2023-09-18T03:54:11;10.98;;;9.80;;
76380;SDS011;65202;52.520;10.528;2023-09-18T03:56:38;16.98;;;9.68;;
76380;SDS011;65202;52.520;10.528;2023-09-18T03:59:06;12.02;;;9.30;;
76380;SDS011;65202;52.520;10.528;2023-09-18T04:01:33;10.77;;;9.18;;
76380;SDS011;65202;52.520;10.528;2023-09-18T04:04:00;11.40;;;9.00;;
76380;SDS011;65202;52.520;10.528;2023-09-18T04:06:40;13.10;;;9.57;;
76380;SDS011;65202;52.520;10.528;2023-09-18T04:09:13;13.90;;;10.25;;
76380;SDS011;65202;52.520;10.528;2023-09-18T04:11:42;10.57;;;9.10;;
76380;SDS011;65202;52.520;10.528;2023-09-18T04:14:09;13.20;;;9.68;;
76380;SDS011;65202;52.520;10.528;2023-09-18T04:16:36;12.60;;;9.25;;
76380;SDS011;65202;52.520;10.528;2023-09-18T04:19:06;16.02;;;9.48;;
76380;SDS011;65202;52.520;10.528;2023-09-18T04:21:35;15.38;;;9.77;;
76380;SDS011;65202;52.520;10.528;2023-09-18T04:24:02;14.98;;;9.88;;
76380;SDS011;65202;52.520;10.528;2023-09-18T04:26:30;18.75;;;9.57;;
76380;SDS011;65202;52.520;10.528;2023-09-18T04:28:58;20.10;;;10.15;;
76380;SDS011;65202;52.520;10.528;2023-09-18T04:31:28;12.25;;;9.45;;
76380;SDS011;65202;52.520;10.528;2023-09-18T04:33:56;17.60;;;9.30;;
76380;SDS011;65202;52.520;10.528;2023-09-18T04:36:23;11.18;;;9.20;;
76380;SDS011;65202;52.520;10.528;2023-09-18T04:38:51;13.63;;;9.02;;
76380;SDS011;65202;52.520;10.528;2023-09-18T04:41:19;11.20;;;8.93;;
76380;SDS011;65202;52.520;10.528;2023-09-18T04:43:46;11.35;;;9.02;;
76380;SDS011;65202;52.520;10.528;2023-09-18T04:46:14;9.85;;;8.70;;
76380;SDS011;65202;52.520;10.528;2023-09-18T04:48:42;11.05;;;8.63;;
76380;SDS011;65202;52.520;10.528;2023-09-18T04:51:09;13.27;;;9.15;;
76380;SDS011;65202;52.520;10.528;2023-09-18T04:53:37;17.83;;;9.20;;
76380;SDS011;65202;52.520;10.528;2023-09-18T04:56:04;10.55;;;8.82;;
76380;SDS011;65202;52.520;10.528;2023-09-18T04:58:32;9.80;;;8.77;;
76380;SDS011;65202;52.520;10.528;2023-09-18T05:00:59;9.95;;;8.65;;
76380;SDS011;65202;52.520;10.528;2023-09-18T05:03:33;11.13;;;9.70;;
76380;SDS011;65202;52.520;10.528;2023-09-18T05:06:02;16.48;;;8.88;;
76380;SDS011;65202;52.520;10.528;2023-09-18T05:08:31;10.95;;;9.18;;
76380;SDS011;65202;52.520;10.528;2023-09-18T05:10:58;14.43;;;8.90;;
76380;SDS011;65202;52.520;10.528;2023-09-18T05:13:26;14.82;;;9.60;;
76380;SDS011;65202;52.520;10.528;2023-09-18T05:15:53;13.25;;;9.50;;
76380;SDS011;65202;52.520;10.528;2023-09-18T05:18:20;13.43;;;8.98;;
76380;SDS011;65202;52.520;10.528;2023-09-18T05:20:48;11.73;;;8.82;;
76380;SDS011;65202;52.520;10.528;2023-09-18T05:23:15;11.75;;;8.88;;
76380;SDS011;65202;52.520;10.528;2023-09-18T05:25:45;15.65;;;9.13;;
76380;SDS011;65202;52.520;10.528;2023-09-18T05:28:12;17.27;;;9.55;;
76380;SDS011;65202;52.520;10.528;2023-09-18T05:30:39;13.02;;;9.43;;
76380;SDS011;65202;52.520;10.528;2023-09-18T05:33:07;13.13;;;8.90;;
76380;SDS011;65202;52.520;10.528;2023-09-18T05:35:39;15.93;;;8.63;;
76380;SDS011;65202;52.520;10.528;2023-09-18T05:38:11;12.48;;;8.82;;
76380;SDS011;65202;52.520;10.528;2023-09-18T05:40:41;12.85;;;8.40;;
76380;SDS011;65202;52.520;10.528;2023-09-18T05:43:08;10.57;;;8.13;;
76380;SDS011;65202;52.520;10.528;2023-09-18T05:45:36;13.85;;;8.27;;
76380;SDS011;65202;52.520;10.528;2023-09-18T05:48:05;9.40;;;8.38;;
76380;SDS011;65202;52.520;10.528;2023-09-18T05:50:33;12.63;;;8.50;;
76380;SDS011;65202;52.520;10.528;2023-09-18T05:53:03;9.10;;;8.00;;
76380;SDS011;65202;52.520;10.528;2023-09-18T05:55:31;11.80;;;8.48;;
76380;SDS011;65202;52.520;10.528;2023-09-18T05:58:01;15.63;;;8.30;;
76380;SDS011;65202;52.520;10.528;2023-09-18T06:00:31;12.98;;;7.63;;
76380;SDS011;65202;52.520;10.528;2023-09-18T06:02:58;14.52;;;7.72;;
76380;SDS011;65202;52.520;10.528;2023-09-18T06:05:26;8.82;;;7.82;;
76380;SDS011;65202;52.520;10.528;2023-09-18T06:07:54;13.07;;;7.63;;
76380;SDS011;65202;52.520;10.528;2023-09-18T06:10:21;11.77;;;8.30;;
76380;SDS011;65202;52.520;10.528;2023-09-18T06:12:48;10.68;;;7.70;;
76380;SDS011;65202;52.520;10.528;2023-09-18T06:15:15;10.45;;;8.13;;
76380;SDS011;65202;52.520;10.528;2023-09-18T06:17:43;13.75;;;7.88;;
76380;SDS011;65202;52.520;10.528;2023-09-18T06:20:11;13.82;;;8.55;;
76380;SDS011;65202;52.520;10.528;2023-09-18T06:22:43;13.57;;;8.27;;
76380;SDS011;65202;52.520;10.528;2023-09-18T06:25:10;9.40;;;7.20;;
76380;SDS011;65202;52.520;10.528;2023-09-18T06:27:38;12.35;;;7.20;;
76380;SDS011;65202;52.520;10.528;2023-09-18T06:30:06;9.27;;;7.20;;
76380;SDS011;65202;52.520;10.528;2023-09-18T06:32:34;10.15;;;6.88;;
76380;SDS011;65202;52.520;10.528;2023-09-18T06:35:01;11.05;;;7.25;;
76380;SDS011;65202;52.520;10.528;2023-09-18T06:37:28;10.10;;;7.45;;
76380;SDS011;65202;52.520;10.528;2023-09-18T06:39:56;11.13;;;8.07;;
76380;SDS011;65202;52.520;10.528;2023-09-18T06:42:26;9.82;;;7.35;;
76380;SDS011;65202;52.520;10.528;2023-09-18T06:44:53;11.80;;;7.15;;
76380;SDS011;65202;52.520;10.528;2023-09-18T06:47:21;14.07;;;8.23;;
76380;SDS011;65202;52.520;10.528;2023-09-18T06:49:51;11.13;;;7.88;;
76380;SDS011;65202;52.520;10.528;2023-09-18T06:52:18;10.30;;;7.25;;
76380;SDS011;65202;52.520;10.528;2023-09-18T06:54:46;10.52;;;7.07;;
76380;SDS011;65202;52.520;10.528;2023-09-18T06:57:13;10.57;;;6.88;;
76380;SDS011;65202;52.520;10.528;2023-09-18T06:59:40;7.95;;;6.63;;
76380;SDS011;65202;52.520;10.528;2023-09-18T07:02:07;9.57;;;6.88;;
76380;SDS011;65202;52.520;10.528;2023-09-18T07:04:35;12.73;;;6.97;;
76380;SDS011;65202;52.520;10.528;2023-09-18T07:07:02;8.50;;;6.85;;
76380;SDS011;65202;52.520;10.528;2023-09-18T07:09:30;10.85;;;6.90;;
76380;SDS011;65202;52.520;10.528;2023-09-18T07:11:57;13.40;;;6.80;;
76380;SDS011;65202;52.520;10.528;2023-09-18T07:14:24;9.65;;;6.65;;
76380;SDS011;65202;52.520;10.528;2023-09-18T07:16:52;9.93;;;6.35;;
76380;SDS011;65202;52.520;10.528;2023-09-18T07:19:19;10.48;;;5.75;;
76380;SDS011;65202;52.520;10.528;2023-09-18T07:21:46;11.35;;;5.93;;
76380;SDS011;65202;52.520;10.528;2023-09-18T07:24:13;6.70;;;5.88;;
76380;SDS011;65202;52.520;10.528;2023-09-18T07:26:44;8.90;;;6.68;;
76380;SDS011;65202;52.520;10.528;2023-09-18T07:29:14;10.18;;;6.38;;
76380;SDS011;65202;52.520;10.528;2023-09-18T07:31:42;8.60;;;6.07;;
76380;SDS011;65202;52.520;10.528;2023-09-18T07:34:11;10.38;;;6.28;;
76380;SDS011;65202;52.520;10.528;2023-09-18T07:36:40;10.45;;;6.55;;
76380;SDS011;65202;52.520;10.528;2023-09-18T07:39:07;8.13;;;6.15;;
76380;SDS011;65202;52.520;10.528;2023-09-18T07:41:35;9.00;;;6.28;;
76380;SDS011;65202;52.520;10.528;2023-09-18T07:44:02;8.50;;;6.20;;
76380;SDS011;65202;52.520;10.528;2023-09-18T07:46:30;11.25;;;6.10;;
76380;SDS011;65202;52.520;10.528;2023-09-18T07:48:57;7.88;;;6.30;;
76380;SDS011;65202;52.520;10.528;2023-09-18T07:51:24;8.13;;;6.60;;
76380;SDS011;65202;52.520;10.528;2023-09-18T07:53:51;7.85;;;5.85;;
76380;SDS011;65202;52.520;10.528;2023-09-18T07:56:19;6.75;;;5.65;;
76380;SDS011;65202;52.520;10.528;2023-09-18T07:58:46;6.32;;;5.65;;
76380;SDS011;65202;52.520;10.528;2023-09-18T08:01:14;7.13;;;5.47;;
76380;SDS011;65202;52.520;10.528;2023-09-18T08:03:43;6.97;;;5.70;;
76380;SDS011;65202;52.520;10.528;2023-09-18T08:06:10;10.45;;;5.93;;
76380;SDS011;65202;52.520;10.528;2023-09-18T08:08:38;7.97;;;5.80;;
76380;SDS011;65202;52.520;10.528;2023-09-18T08:11:07;12.45;;;6.20;;
76380;SDS011;65202;52.520;10.528;2023-09-18T08:13:37;9.35;;;5.93;;
76380;SDS011;65202;52.520;10.528;2023-09-18T08:16:06;9.35;;;5.70;;
76380;SDS011;65202;52.520;10.528;2023-09-18T08:18:34;10.93;;;6.05;;
76380;SDS011;65202;52.520;10.528;2023-09-18T08:21:02;10.48;;;5.60;;
76380;SDS011;65202;52.520;10.528;2023-09-18T08:23:31;10.30;;;5.43;;
76380;SDS011;65202;52.520;10.528;2023-09-18T08:25:59;7.32;;;5.43;;
76380;SDS011;65202;52.520;10.528;2023-09-18T08:28:27;14.90;;;6.57;;
76380;SDS011;65202;52.520;10.528;2023-09-18T08:30:54;12.13;;;5.85;;
76380;SDS011;65202;52.520;10.528;2023-09-18T08:33:22;7.82;;;6.00;;
76380;SDS011;65202;52.520;10.528;2023-09-18T08:35:49;11.02;;;5.38;;
76380;SDS011;65202;52.520;10.528;2023-09-18T08:38:16;7.00;;;5.40;;
76380;SDS011;65202;52.520;10.528;2023-09-18T08:40:44;12.15;;;5.70;;
76380;SDS011;65202;52.520;10.528;2023-09-18T08:43:12;8.88;;;5.50;;
76380;SDS011;65202;52.520;10.528;2023-09-18T08:45:46;14.57;;;7.50;;
76380;SDS011;65202;52.520;10.528;2023-09-18T08:48:20;7.03;;;5.63;;
76380;SDS011;65202;52.520;10.528;2023-09-18T08:50:48;11.07;;;5.57;;
76380;SDS011;65202;52.520;10.528;2023-09-18T08:53:18;8.13;;;5.28;;
76380;SDS011;65202;52.520;10.528;2023-09-18T08:55:45;11.45;;;4.93;;
76380;SDS011;65202;52.520;10.528;2023-09-18T08:58:12;11.02;;;5.70;;
76380;SDS011;65202;52.520;10.528;2023-09-18T09:00:41;12.05;;;5.07;;
76380;SDS011;65202;52.520;10.528;2023-09-18T09:03:08;8.77;;;5.55;;
76380;SDS011;65202;52.520;10.528;2023-09-18T09:05:37;10.77;;;5.68;;
76380;SDS011;65202;52.520;10.528;2023-09-18T09:08:04;26.77;;;6.35;;
76380;SDS011;65202;52.520;10.528;2023-09-18T09:10:31;7.22;;;5.00;;
76380;SDS011;65202;52.520;10.528;2023-09-18T09:12:59;8.10;;;4.85;;
76380;SDS011;65202;52.520;10.528;2023-09-18T09:15:47;10.07;;;5.13;;
76380;SDS011;65202;52.520;10.528;2023-09-18T09:18:16;11.30;;;5.20;;
76380;SDS011;65202;52.520;10.528;2023-09-18T09:20:52;7.78;;;4.72;;
76380;SDS011;65202;52.520;10.528;2023-09-18T09:23:27;15.40;;;4.80;;
76380;SDS011;65202;52.520;10.528;2023-09-18T09:26:11;13.40;;;4.38;;
76380;SDS011;65202;52.520;10.528;2023-09-18T09:28:43;16.27;;;5.63;;
76380;SDS011;65202;52.520;10.528;2023-09-18T09:31:22;17.83;;;5.18;;
76380;SDS011;65202;52.520;10.528;2023-09-18T09:33:59;14.80;;;5.13;;
76380;SDS011;65202;52.520;10.528;2023-09-18T09:36:29;15.05;;;4.70;;
76380;SDS011;65202;52.520;10.528;2023-09-18T09:38:57;18.67;;;5.05;;
76380;SDS011;65202;52.520;10.528;2023-09-18T09:41:26;11.30;;;4.75;;
76380;SDS011;65202;52.520;10.528;2023-09-18T09:43:57;11.85;;;4.57;;
76380;SDS011;65202;52.520;10.528;2023-09-18T09:46:25;18.30;;;4.85;;
76380;SDS011;65202;52.520;10.528;2023-09-18T09:51:32;13.77;;;4.60;;
76380;SDS011;65202;52.520;10.528;2023-09-18T09:54:01;15.63;;;4.35;;
76380;SDS011;65202;52.520;10.528;2023-09-18T09:56:45;16.08;;;4.47;;
76380;SDS011;65202;52.520;10.528;2023-09-18T09:59:18;13.60;;;4.40;;
76380;SDS011;65202;52.520;10.528;2023-09-18T10:01:47;10.50;;;3.95;;
76380;SDS011;65202;52.520;10.528;2023-09-18T10:04:17;11.65;;;4.13;;
76380;SDS011;65202;52.520;10.528;2023-09-18T10:06:56;14.75;;;4.10;;
76380;SDS011;65202;52.520;10.528;2023-09-18T10:09:34;13.57;;;4.22;;
76380;SDS011;65202;52.520;10.528;2023-09-18T10:12:07;16.45;;;4.00;;
76380;SDS011;65202;52.520;10.528;2023-09-18T10:14:38;12.88;;;3.80;;
76380;SDS011;65202;52.520;10.528;2023-09-18T10:17:27;18.33;;;4.40;;
76380;SDS011;65202;52.520;10.528;2023-09-18T10:22:39;13.02;;;4.47;;
76380;SDS011;65202;52.520;10.528;2023-09-18T10:25:14;14.13;;;4.20;;
76380;SDS011;65202;52.520;10.528;2023-09-18T10:27:47;13.23;;;4.90;;
76380;SDS011;65202;52.520;10.528;2023-09-18T10:30:16;17.88;;;4.78;;
76380;SDS011;65202;52.520;10.528;2023-09-18T10:32:45;17.90;;;4.80;;
76380;SDS011;65202;52.520;10.528;2023-09-18T10:35:13;17.63;;;4.45;;
76380;SDS011;65202;52.520;10.528;2023-09-18T10:37:42;18.17;;;4.65;;
76380;SDS011;65202;52.520;10.528;2023-09-18T10:40:12;20.23;;;4.65;;
76380;SDS011;65202;52.520;10.528;2023-09-18T10:42:40;10.38;;;4.22;;
76380;SDS011;65202;52.520;10.528;2023-09-18T10:45:10;14.18;;;3.78;;
76380;SDS011;65202;52.520;10.528;2023-09-18T10:47:40;12.27;;;4.47;;
76380;SDS011;65202;52.520;10.528;2023-09-18T10:52:50;15.80;;;4.70;;
76380;SDS011;65202;52.520;10.528;2023-09-18T10:55:18;10.43;;;3.70;;
76380;SDS011;65202;52.520;10.528;2023-09-18T10:57:51;16.45;;;4.50;;
76380;SDS011;65202;52.520;10.528;2023-09-18T11:00:21;13.43;;;4.38;;
76380;SDS011;65202;52.520;10.528;2023-09-18T11:06:04;16.42;;;4.10;;
76380;SDS011;65202;52.520;10.528;2023-09-18T11:08:46;11.38;;;3.88;;
76380;SDS011;65202;52.520;10.528;2023-09-18T11:11:20;16.77;;;4.68;;
76380;SDS011;65202;52.520;10.528;2023-09-18T11:13:48;9.60;;;4.07;;
76380;SDS011;65202;52.520;10.528;2023-09-18T11:21:30;18.27;;;4.50;;
76380;SDS011;65202;52.520;10.528;2023-09-18T11:24:06;12.65;;;3.70;;
76380;SDS011;65202;52.520;10.528;2023-09-18T11:26:43;12.85;;;3.90;;
76380;SDS011;65202;52.520;10.528;2023-09-18T11:29:15;14.27;;;3.63;;
76380;SDS011;65202;52.520;10.528;2023-09-18T11:31:53;12.25;;;3.50;;
76380;SDS011;65202;52.520;10.528;2023-09-18T11:34:24;12.40;;;3.75;;
76380;SDS011;65202;52.520;10.528;2023-09-18T11:36:58;14.00;;;3.40;;
76380;SDS011;65202;52.520;10.528;2023-09-18T11:39:35;10.43;;;3.25;;
76380;SDS011;65202;52.520;10.528;2023-09-18T11:42:11;11.40;;;3.10;;
76380;SDS011;65202;52.520;10.528;2023-09-18T11:44:42;13.48;;;3.42;;
76380;SDS011;65202;52.520;10.528;2023-09-18T11:47:14;11.13;;;3.50;;
76380;SDS011;65202;52.520;10.528;2023-09-18T11:49:50;11.48;;;3.08;;
76380;SDS011;65202;52.520;10.528;2023-09-18T11:52:26;15.55;;;3.50;;
76380;SDS011;65202;52.520;10.528;2023-09-18T11:54:57;12.88;;;2.78;;
76380;SDS011;65202;52.520;10.528;2023-09-18T11:57:26;12.73;;;3.08;;
76380;SDS011;65202;52.520;10.528;2023-09-18T11:59:56;12.75;;;3.58;;
76380;SDS011;65202;52.520;10.528;2023-09-18T12:02:28;13.02;;;2.92;;
76380;SDS011;65202;52.520;10.528;2023-09-18T12:05:13;11.55;;;3.22;;
76380;SDS011;65202;52.520;10.528;2023-09-18T12:07:45;13.52;;;3.28;;
76380;SDS011;65202;52.520;10.528;2023-09-18T12:10:14;9.10;;;2.67;;
76380;SDS011;65202;52.520;10.528;2023-09-18T12:12:45;12.93;;;3.10;;
76380;SDS011;65202;52.520;10.528;2023-09-18T12:15:17;9.25;;;2.58;;
76380;SDS011;65202;52.520;10.528;2023-09-18T12:17:46;9.13;;;2.20;;
76380;SDS011;65202;52.520;10.528;2023-09-18T12:20:18;9.00;;;2.45;;
76380;SDS011;65202;52.520;10.528;2023-09-18T12:22:48;6.82;;;2.13;;
76380;SDS011;65202;52.520;10.528;2023-09-18T12:25:18;9.15;;;2.40;;
76380;SDS011;65202;52.520;10.528;2023-09-18T12:27:45;12.07;;;2.92;;
76380;SDS011;65202;52.520;10.528;2023-09-18T12:30:18;7.65;;;2.25;;
76380;SDS011;65202;52.520;10.528;2023-09-18T12:32:49;9.73;;;2.47;;
76380;SDS011;65202;52.520;10.528;2023-09-18T12:35:18;7.40;;;2.13;;
76380;SDS011;65202;52.520;10.528;2023-09-18T12:37:46;9.85;;;2.50;;
76380;SDS011;65202;52.520;10.528;2023-09-18T12:40:29;5.68;;;2.40;;
76380;SDS011;65202;52.520;10.528;2023-09-18T12:42:59;6.30;;;2.47;;
76380;SDS011;65202;52.520;10.528;2023-09-18T12:45:28;12.25;;;2.65;;
76380;SDS011;65202;52.520;10.528;2023-09-18T12:47:57;7.97;;;3.17;;
76380;SDS011;65202;52.520;10.528;2023-09-18T12:50:26;8.48;;;3.63;;
76380;SDS011;65202;52.520;10.528;2023-09-18T12:53:07;9.68;;;3.40;;
76380;SDS011;65202;52.520;10.528;2023-09-18T12:55:42;11.40;;;3.33;;
76380;SDS011;65202;52.520;10.528;2023-09-18T12:58:10;12.68;;;3.00;;
76380;SDS011;65202;52.520;10.528;2023-09-18T13:00:47;10.18;;;2.60;;
76380;SDS011;65202;52.520;10.528;2023-09-18T13:03:16;11.65;;;3.10;;
76380;SDS011;65202;52.520;10.528;2023-09-18T13:05:45;7.45;;;2.88;;
76380;SDS011;65202;52.520;10.528;2023-09-18T13:08:14;11.15;;;2.88;;
76380;SDS011;65202;52.520;10.528;2023-09-18T13:10:45;8.13;;;3.00;;
76380;SDS011;65202;52.520;10.528;2023-09-18T13:13:22;11.70;;;3.03;;
76380;SDS011;65202;52.520;10.528;2023-09-18T13:15:50;11.05;;;4.60;;
76380;SDS011;65202;52.520;10.528;2023-09-18T13:18:22;10.38;;;3.28;;
76380;SDS011;65202;52.520;10.528;2023-09-18T13:20:51;13.95;;;3.15;;
76380;SDS011;65202;52.520;10.528;2023-09-18T13:23:20;8.55;;;2.60;;
76380;SDS011;65202;52.520;10.528;2023-09-18T13:25:58;9.82;;;2.92;;
76380;SDS011;65202;52.520;10.528;2023-09-18T13:30:57;8.50;;;2.97;;
76380;SDS011;65202;52.520;10.528;2023-09-18T13:33:26;10.98;;;3.53;;
76380;SDS011;65202;52.520;10.528;2023-09-18T13:35:54;12.00;;;3.28;;
76380;SDS011;65202;52.520;10.528;2023-09-18T13:38:22;12.80;;;3.40;;
76380;SDS011;65202;52.520;10.528;2023-09-18T13:40:53;16.90;;;4.00;;
76380;SDS011;65202;52.520;10.528;2023-09-18T13:43:23;14.27;;;3.10;;
76380;SDS011;65202;52.520;10.528;2023-09-18T13:45:51;13.23;;;3.55;;
76380;SDS011;65202;52.520;10.528;2023-09-18T13:48:18;8.95;;;3.05;;
76380;SDS011;65202;52.520;10.528;2023-09-18T13:50:46;17.35;;;3.30;;
76380;SDS011;65202;52.520;10.528;2023-09-18T13:55:46;11.02;;;3.00;;
76380;SDS011;65202;52.520;10.528;2023-09-18T13:58:13;12.98;;;3.05;;
76380;SDS011;65202;52.520;10.528;2023-09-18T14:00:40;14.60;;;3.30;;
76380;SDS011;65202;52.520;10.528;2023-09-18T14:03:10;13.25;;;2.90;;
76380;SDS011;65202;52.520;10.528;2023-09-18T14:05:42;12.87;;;3.13;;
76380;SDS011;65202;52.520;10.528;2023-09-18T14:08:09;20.38;;;3.03;;
76380;SDS011;65202;52.520;10.528;2023-09-18T14:10:36;15.23;;;3.05;;
76380;SDS011;65202;52.520;10.528;2023-09-18T14:13:06;9.65;;;2.60;;
76380;SDS011;65202;52.520;10.528;2023-09-18T14:15:34;11.02;;;3.40;;
76380;SDS011;65202;52.520;10.528;2023-09-18T14:18:01;8.55;;;2.70;;
76380;SDS011;65202;52.520;10.528;2023-09-18T14:20:30;13.93;;;3.28;;
76380;SDS011;65202;52.520;10.528;2023-09-18T14:22:57;11.85;;;2.70;;
76380;SDS011;65202;52.520;10.528;2023-09-18T14:25:24;9.65;;;2.70;;
76380;SDS011;65202;52.520;10.528;2023-09-18T14:27:52;10.48;;;2.85;;
76380;SDS011;65202;52.520;10.528;2023-09-18T14:30:19;14.63;;;3.10;;
76380;SDS011;65202;52.520;10.528;2023-09-18T14:32:47;13.20;;;3.45;;
76380;SDS011;65202;52.520;10.528;2023-09-18T14:35:15;13.32;;;3.22;;
76380;SDS011;65202;52.520;10.528;2023-09-18T14:37:42;9.68;;;2.40;;
76380;SDS011;65202;52.520;10.528;2023-09-18T14:40:09;4.75;;;2.70;;
76380;SDS011;65202;52.520;10.528;2023-09-18T14:42:39;8.40;;;2.90;;
76380;SDS011;65202;52.520;10.528;2023-09-18T14:45:06;7.15;;;2.50;;
76380;SDS011;65202;52.520;10.528;2023-09-18T14:47:35;6.15;;;2.47;;
76380;SDS011;65202;52.520;10.528;2023-09-18T14:50:04;7.43;;;2.85;;
76380;SDS011;65202;52.520;10.528;2023-09-18T14:52:32;8.50;;;2.80;;
76380;SDS011;65202;52.520;10.528;2023-09-18T14:54:59;10.50;;;3.13;;
76380;SDS011;65202;52.520;10.528;2023-09-18T14:57:28;11.63;;;4.30;;
76380;SDS011;65202;52.520;10.528;2023-09-18T14:59:55;7.93;;;2.85;;